sensor_id;sensor_type;location;lat;lon;timestamp;P1;durP1;ratioP1;P2;durP2;ratioP2
65753;SDS011;52488;47.502;18.940;2022-10-12T00:00:31;14.93;;;10.32;;
65753;SDS011;52488;47.502;18.940;2022-10-12T00:01:34;18.75;;;10.48;;
65753;SDS011;52488;47.502;18.940;2022-10-12T00:02:37;17.20;;;10.52;;
65753;SDS011;52488;47.502;18.940;2022-10-12T00:03:39;17.40;;;10.23;;
65753;SDS011;52488;47.502;18.940;2022-10-12T00:04:42;17.37;;;10.77;;
65753;SDS011;52488;47.502;18.940;2022-10-12T00:05:45;18.87;;;11.43;;
65753;SDS011;52488;47.502;18.940;2022-10-12T00:06:48;16.20;;;11.35;;
65753;SDS011;52488;47.502;18.940;2022-10-12T00:07:50;18.85;;;11.38;;
65753;SDS011;52488;47.502;18.940;2022-10-12T00:08:54;18.23;;;11.90;;
65753;SDS011;52488;47.502;18.940;2022-10-12T00:09:56;16.10;;;10.25;;
65753;SDS011;52488;47.502;18.940;2022-10-12T00:10:59;18.60;;;10.50;;
65753;SDS011;52488;47.502;18.940;2022-10-12T00:12:02;17.12;;;9.88;;
65753;SDS011;52488;47.502;18.940;2022-10-12T00:13:04;15.73;;;10.05;;
65753;SDS011;52488;47.502;18.940;2022-10-12T00:14:07;17.15;;;10.48;;
65753;SDS011;52488;47.502;18.940;2022-10-12T00:15:10;17.27;;;10.60;;
65753;SDS011;52488;47.502;18.940;2022-10-12T00:16:13;19.52;;;11.60;;
65753;SDS011;52488;47.502;18.940;2022-10-12T00:17:18;17.80;;;10.52;;
65753;SDS011;52488;47.502;18.940;2022-10-12T00:18:21;16.42;;;10.73;;
65753;SDS011;52488;47.502;18.940;2022-10-12T00:19:24;15.45;;;10.15;;
65753;SDS011;52488;47.502;18.940;2022-10-12T00:20:27;15.77;;;10.27;;
65753;SDS011;52488;47.502;18.940;2022-10-12T00:21:29;19.67;;;11.32;;
65753;SDS011;52488;47.502;18.940;2022-10-12T00:22:32;17.10;;;11.15;;
65753;SDS011;52488;47.502;18.940;2022-10-12T00:23:35;15.60;;;10.32;;
65753;SDS011;52488;47.502;18.940;2022-10-12T00:24:39;19.65;;;11.12;;
65753;SDS011;52488;47.502;18.940;2022-10-12T00:25:44;22.45;;;10.13;;
65753;SDS011;52488;47.502;18.940;2022-10-12T00:26:48;15.40;;;10.20;;
65753;SDS011;52488;47.502;18.940;2022-10-12T00:27:52;18.37;;;10.65;;
65753;SDS011;52488;47.502;18.940;2022-10-12T00:28:55;17.75;;;11.40;;
65753;SDS011;52488;47.502;18.940;2022-10-12T00:29:59;14.80;;;10.13;;
65753;SDS011;52488;47.502;18.940;2022-10-12T00:31:06;18.85;;;11.12;;
65753;SDS011;52488;47.502;18.940;2022-10-12T00:32:10;18.33;;;10.25;;
65753;SDS011;52488;47.502;18.940;2022-10-12T00:33:13;14.80;;;10.15;;
65753;SDS011;52488;47.502;18.940;2022-10-12T00:34:16;19.23;;;10.95;;
65753;SDS011;52488;47.502;18.940;2022-10-12T00:35:18;13.10;;;8.98;;
65753;SDS011;52488;47.502;18.940;2022-10-12T00:36:23;15.43;;;10.10;;
65753;SDS011;52488;47.502;18.940;2022-10-12T00:37:27;16.52;;;10.50;;
65753;SDS011;52488;47.502;18.940;2022-10-12T00:38:30;14.52;;;10.43;;
65753;SDS011;52488;47.502;18.940;2022-10-12T00:39:33;17.95;;;10.68;;
65753;SDS011;52488;47.502;18.940;2022-10-12T00:40:35;13.48;;;9.77;;
65753;SDS011;52488;47.502;18.940;2022-10-12T00:41:40;18.80;;;10.63;;
65753;SDS011;52488;47.502;18.940;2022-10-12T00:42:44;17.55;;;10.50;;
65753;SDS011;52488;47.502;18.940;2022-10-12T00:43:47;15.00;;;9.98;;
65753;SDS011;52488;47.502;18.940;2022-10-12T00:44:58;15.40;;;10.00;;
65753;SDS011;52488;47.502;18.940;2022-10-12T00:46:02;18.15;;;10.60;;
65753;SDS011;52488;47.502;18.940;2022-10-12T00:47:13;19.33;;;9.52;;
65753;SDS011;52488;47.502;18.940;2022-10-12T00:48:29;17.85;;;10.65;;
65753;SDS011;52488;47.502;18.940;2022-10-12T00:49:32;17.48;;;10.30;;
65753;SDS011;52488;47.502;18.940;2022-10-12T00:50:36;17.27;;;10.82;;
65753;SDS011;52488;47.502;18.940;2022-10-12T00:51:39;18.42;;;10.32;;
65753;SDS011;52488;47.502;18.940;2022-10-12T00:52:49;18.67;;;10.48;;
65753;SDS011;52488;47.502;18.940;2022-10-12T00:54:02;16.77;;;10.25;;
65753;SDS011;52488;47.502;18.940;2022-10-12T00:55:09;14.30;;;10.23;;
65753;SDS011;52488;47.502;18.940;2022-10-12T00:56:19;14.60;;;10.13;;
65753;SDS011;52488;47.502;18.940;2022-10-12T00:57:25;21.15;;;10.75;;
65753;SDS011;52488;47.502;18.940;2022-10-12T00:58:28;14.85;;;9.93;;
65753;SDS011;52488;47.502;18.940;2022-10-12T00:59:39;15.82;;;10.07;;
65753;SDS011;52488;47.502;18.940;2022-10-12T01:00:50;16.70;;;10.50;;
65753;SDS011;52488;47.502;18.940;2022-10-12T01:01:53;20.60;;;11.65;;
65753;SDS011;52488;47.502;18.940;2022-10-12T01:02:57;17.83;;;10.48;;
65753;SDS011;52488;47.502;18.940;2022-10-12T01:04:00;15.73;;;10.18;;
65753;SDS011;52488;47.502;18.940;2022-10-12T01:05:04;18.70;;;10.27;;
65753;SDS011;52488;47.502;18.940;2022-10-12T01:06:10;17.75;;;10.23;;
65753;SDS011;52488;47.502;18.940;2022-10-12T01:07:13;16.98;;;10.00;;
65753;SDS011;52488;47.502;18.940;2022-10-12T01:08:16;16.65;;;10.63;;
65753;SDS011;52488;47.502;18.940;2022-10-12T01:09:19;15.82;;;10.18;;
65753;SDS011;52488;47.502;18.940;2022-10-12T01:10:22;17.95;;;10.63;;
65753;SDS011;52488;47.502;18.940;2022-10-12T01:11:25;18.05;;;10.35;;
65753;SDS011;52488;47.502;18.940;2022-10-12T01:12:27;23.48;;;12.55;;
65753;SDS011;52488;47.502;18.940;2022-10-12T01:13:33;25.75;;;14.30;;
65753;SDS011;52488;47.502;18.940;2022-10-12T01:14:36;26.10;;;14.65;;
65753;SDS011;52488;47.502;18.940;2022-10-12T01:15:41;21.10;;;13.35;;
65753;SDS011;52488;47.502;18.940;2022-10-12T01:21:26;18.52;;;11.77;;
65753;SDS011;52488;47.502;18.940;2022-10-12T01:22:30;19.20;;;11.50;;
65753;SDS011;52488;47.502;18.940;2022-10-12T01:25:14;21.20;;;12.10;;
65753;SDS011;52488;47.502;18.940;2022-10-12T01:26:38;21.55;;;12.48;;
65753;SDS011;52488;47.502;18.940;2022-10-12T01:30:53;25.88;;;12.25;;
65753;SDS011;52488;47.502;18.940;2022-10-12T01:33:40;18.87;;;10.80;;
65753;SDS011;52488;47.502;18.940;2022-10-12T01:34:52;23.98;;;12.20;;
65753;SDS011;52488;47.502;18.940;2022-10-12T01:36:16;19.15;;;11.32;;
65753;SDS011;52488;47.502;18.940;2022-10-12T01:38:51;20.67;;;11.15;;
65753;SDS011;52488;47.502;18.940;2022-10-12T01:40:02;17.83;;;11.75;;
65753;SDS011;52488;47.502;18.940;2022-10-12T01:42:15;19.15;;;11.05;;
65753;SDS011;52488;47.502;18.940;2022-10-12T01:44:35;16.25;;;10.48;;
65753;SDS011;52488;47.502;18.940;2022-10-12T01:45:43;19.23;;;10.25;;
65753;SDS011;52488;47.502;18.940;2022-10-12T01:46:46;17.15;;;10.77;;
65753;SDS011;52488;47.502;18.940;2022-10-12T01:47:51;15.43;;;9.93;;
65753;SDS011;52488;47.502;18.940;2022-10-12T01:48:56;15.95;;;10.63;;
65753;SDS011;52488;47.502;18.940;2022-10-12T01:50:02;17.05;;;10.43;;
65753;SDS011;52488;47.502;18.940;2022-10-12T01:51:07;17.55;;;10.88;;
65753;SDS011;52488;47.502;18.940;2022-10-12T01:52:26;20.75;;;10.55;;
65753;SDS011;52488;47.502;18.940;2022-10-12T01:53:42;19.42;;;10.63;;
65753;SDS011;52488;47.502;18.940;2022-10-12T01:55:15;17.87;;;10.25;;
65753;SDS011;52488;47.502;18.940;2022-10-12T01:56:30;19.92;;;10.15;;
65753;SDS011;52488;47.502;18.940;2022-10-12T02:00:48;15.93;;;10.18;;
65753;SDS011;52488;47.502;18.940;2022-10-12T02:01:56;23.12;;;12.15;;
65753;SDS011;52488;47.502;18.940;2022-10-12T02:03:31;22.92;;;11.60;;
65753;SDS011;52488;47.502;18.940;2022-10-12T02:04:51;21.40;;;11.63;;
65753;SDS011;52488;47.502;18.940;2022-10-12T02:07:38;18.52;;;11.68;;
65753;SDS011;52488;47.502;18.940;2022-10-12T02:10:07;19.58;;;11.30;;
65753;SDS011;52488;47.502;18.940;2022-10-12T02:11:15;17.35;;;10.52;;
65753;SDS011;52488;47.502;18.940;2022-10-12T02:12:21;19.27;;;11.43;;
65753;SDS011;52488;47.502;18.940;2022-10-12T02:13:27;18.55;;;10.55;;
65753;SDS011;52488;47.502;18.940;2022-10-12T02:14:36;16.40;;;10.05;;
65753;SDS011;52488;47.502;18.940;2022-10-12T02:15:42;20.42;;;10.52;;
65753;SDS011;52488;47.502;18.940;2022-10-12T02:16:48;21.98;;;11.07;;
65753;SDS011;52488;47.502;18.940;2022-10-12T02:17:57;15.18;;;9.40;;
65753;SDS011;52488;47.502;18.940;2022-10-12T02:19:04;18.70;;;10.18;;
65753;SDS011;52488;47.502;18.940;2022-10-12T02:20:12;14.35;;;10.07;;
65753;SDS011;52488;47.502;18.940;2022-10-12T02:21:21;16.23;;;10.23;;
65753;SDS011;52488;47.502;18.940;2022-10-12T02:22:30;16.10;;;10.38;;
65753;SDS011;52488;47.502;18.940;2022-10-12T02:23:37;18.52;;;10.32;;
65753;SDS011;52488;47.502;18.940;2022-10-12T02:24:41;16.45;;;10.02;;
65753;SDS011;52488;47.502;18.940;2022-10-12T02:25:47;17.55;;;9.60;;
65753;SDS011;52488;47.502;18.940;2022-10-12T02:26:53;17.48;;;10.20;;
65753;SDS011;52488;47.502;18.940;2022-10-12T02:27:58;20.83;;;10.85;;
65753;SDS011;52488;47.502;18.940;2022-10-12T02:29:09;22.65;;;12.07;;
65753;SDS011;52488;47.502;18.940;2022-10-12T02:30:16;19.37;;;10.82;;
65753;SDS011;52488;47.502;18.940;2022-10-12T02:31:27;15.88;;;9.75;;
65753;SDS011;52488;47.502;18.940;2022-10-12T02:33:02;17.58;;;9.82;;
65753;SDS011;52488;47.502;18.940;2022-10-12T02:34:14;19.85;;;10.27;;
65753;SDS011;52488;47.502;18.940;2022-10-12T02:35:26;16.77;;;10.35;;
65753;SDS011;52488;47.502;18.940;2022-10-12T02:36:35;20.80;;;11.27;;
65753;SDS011;52488;47.502;18.940;2022-10-12T02:37:51;17.45;;;10.10;;
65753;SDS011;52488;47.502;18.940;2022-10-12T02:39:10;16.83;;;10.00;;
65753;SDS011;52488;47.502;18.940;2022-10-12T02:41:27;21.95;;;10.10;;
65753;SDS011;52488;47.502;18.940;2022-10-12T02:42:35;17.87;;;10.57;;
65753;SDS011;52488;47.502;18.940;2022-10-12T02:44:03;19.30;;;10.45;;
65753;SDS011;52488;47.502;18.940;2022-10-12T02:45:11;17.33;;;11.02;;
65753;SDS011;52488;47.502;18.940;2022-10-12T02:46:16;17.30;;;10.60;;
65753;SDS011;52488;47.502;18.940;2022-10-12T02:47:21;15.10;;;9.13;;
65753;SDS011;52488;47.502;18.940;2022-10-12T02:48:28;20.88;;;10.02;;
65753;SDS011;52488;47.502;18.940;2022-10-12T02:49:31;20.17;;;10.43;;
65753;SDS011;52488;47.502;18.940;2022-10-12T02:50:37;19.65;;;10.20;;
65753;SDS011;52488;47.502;18.940;2022-10-12T02:51:40;17.62;;;9.48;;
65753;SDS011;52488;47.502;18.940;2022-10-12T02:52:45;17.90;;;10.45;;
65753;SDS011;52488;47.502;18.940;2022-10-12T02:53:49;17.08;;;10.38;;
65753;SDS011;52488;47.502;18.940;2022-10-12T02:54:52;17.73;;;10.48;;
65753;SDS011;52488;47.502;18.940;2022-10-12T02:55:59;14.10;;;10.07;;
65753;SDS011;52488;47.502;18.940;2022-10-12T02:57:08;19.15;;;10.70;;
65753;SDS011;52488;47.502;18.940;2022-10-12T02:58:11;14.55;;;9.68;;
65753;SDS011;52488;47.502;18.940;2022-10-12T02:59:14;18.98;;;9.48;;
65753;SDS011;52488;47.502;18.940;2022-10-12T03:00:19;19.08;;;10.43;;
65753;SDS011;52488;47.502;18.940;2022-10-12T03:01:21;16.02;;;9.38;;
65753;SDS011;52488;47.502;18.940;2022-10-12T03:02:25;17.83;;;10.88;;
65753;SDS011;52488;47.502;18.940;2022-10-12T03:03:27;19.12;;;11.27;;
65753;SDS011;52488;47.502;18.940;2022-10-12T03:04:30;17.40;;;10.20;;
65753;SDS011;52488;47.502;18.940;2022-10-12T03:05:33;16.92;;;10.60;;
65753;SDS011;52488;47.502;18.940;2022-10-12T03:06:36;15.75;;;10.25;;
65753;SDS011;52488;47.502;18.940;2022-10-12T03:07:39;17.58;;;10.75;;
65753;SDS011;52488;47.502;18.940;2022-10-12T03:08:42;16.80;;;9.82;;
65753;SDS011;52488;47.502;18.940;2022-10-12T03:09:45;17.83;;;10.60;;
65753;SDS011;52488;47.502;18.940;2022-10-12T03:10:47;16.92;;;9.55;;
65753;SDS011;52488;47.502;18.940;2022-10-12T03:11:50;17.42;;;10.05;;
65753;SDS011;52488;47.502;18.940;2022-10-12T03:12:53;16.60;;;9.68;;
65753;SDS011;52488;47.502;18.940;2022-10-12T03:13:56;18.75;;;9.93;;
65753;SDS011;52488;47.502;18.940;2022-10-12T03:14:59;15.90;;;9.38;;
65753;SDS011;52488;47.502;18.940;2022-10-12T03:16:03;15.32;;;9.45;;
65753;SDS011;52488;47.502;18.940;2022-10-12T03:17:06;15.23;;;9.40;;
65753;SDS011;52488;47.502;18.940;2022-10-12T03:18:10;22.17;;;10.48;;
65753;SDS011;52488;47.502;18.940;2022-10-12T03:19:13;15.25;;;9.75;;
65753;SDS011;52488;47.502;18.940;2022-10-12T03:20:16;14.95;;;9.32;;
65753;SDS011;52488;47.502;18.940;2022-10-12T03:21:19;15.20;;;9.57;;
65753;SDS011;52488;47.502;18.940;2022-10-12T03:22:22;14.27;;;9.50;;
65753;SDS011;52488;47.502;18.940;2022-10-12T03:23:25;13.00;;;8.57;;
65753;SDS011;52488;47.502;18.940;2022-10-12T03:24:28;19.23;;;9.75;;
65753;SDS011;52488;47.502;18.940;2022-10-12T03:25:31;14.18;;;8.75;;
65753;SDS011;52488;47.502;18.940;2022-10-12T03:26:35;16.87;;;9.48;;
65753;SDS011;52488;47.502;18.940;2022-10-12T03:27:38;15.25;;;8.65;;
65753;SDS011;52488;47.502;18.940;2022-10-12T03:28:42;15.50;;;9.48;;
65753;SDS011;52488;47.502;18.940;2022-10-12T03:29:44;15.63;;;9.10;;
65753;SDS011;52488;47.502;18.940;2022-10-12T03:30:47;17.77;;;9.35;;
65753;SDS011;52488;47.502;18.940;2022-10-12T03:31:50;14.02;;;9.48;;
65753;SDS011;52488;47.502;18.940;2022-10-12T03:32:53;16.65;;;8.50;;
65753;SDS011;52488;47.502;18.940;2022-10-12T03:33:56;13.65;;;8.48;;
65753;SDS011;52488;47.502;18.940;2022-10-12T03:34:59;13.93;;;9.10;;
65753;SDS011;52488;47.502;18.940;2022-10-12T03:36:02;12.25;;;8.43;;
65753;SDS011;52488;47.502;18.940;2022-10-12T03:37:05;14.55;;;9.23;;
65753;SDS011;52488;47.502;18.940;2022-10-12T03:38:08;16.00;;;9.15;;
65753;SDS011;52488;47.502;18.940;2022-10-12T03:39:11;12.43;;;8.50;;
65753;SDS011;52488;47.502;18.940;2022-10-12T03:40:14;13.25;;;8.93;;
65753;SDS011;52488;47.502;18.940;2022-10-12T03:41:16;17.30;;;9.15;;
65753;SDS011;52488;47.502;18.940;2022-10-12T03:42:19;17.95;;;9.55;;
65753;SDS011;52488;47.502;18.940;2022-10-12T03:43:22;16.23;;;8.75;;
65753;SDS011;52488;47.502;18.940;2022-10-12T03:44:25;14.38;;;8.93;;
65753;SDS011;52488;47.502;18.940;2022-10-12T03:45:28;13.70;;;8.45;;
65753;SDS011;52488;47.502;18.940;2022-10-12T03:46:31;15.63;;;9.93;;
65753;SDS011;52488;47.502;18.940;2022-10-12T03:47:34;14.07;;;8.85;;
65753;SDS011;52488;47.502;18.940;2022-10-12T03:48:37;16.55;;;10.25;;
65753;SDS011;52488;47.502;18.940;2022-10-12T03:49:40;15.80;;;9.32;;
65753;SDS011;52488;47.502;18.940;2022-10-12T03:50:47;20.33;;;10.80;;
65753;SDS011;52488;47.502;18.940;2022-10-12T03:51:51;16.50;;;10.52;;
65753;SDS011;52488;47.502;18.940;2022-10-12T03:52:54;18.60;;;10.70;;
65753;SDS011;52488;47.502;18.940;2022-10-12T03:53:57;17.55;;;10.95;;
65753;SDS011;52488;47.502;18.940;2022-10-12T03:55:00;17.95;;;11.02;;
65753;SDS011;52488;47.502;18.940;2022-10-12T03:56:03;17.17;;;11.25;;
65753;SDS011;52488;47.502;18.940;2022-10-12T03:57:06;21.45;;;10.80;;
65753;SDS011;52488;47.502;18.940;2022-10-12T03:58:09;20.75;;;11.40;;
65753;SDS011;52488;47.502;18.940;2022-10-12T03:59:12;22.02;;;11.38;;
65753;SDS011;52488;47.502;18.940;2022-10-12T04:00:15;20.52;;;11.60;;
65753;SDS011;52488;47.502;18.940;2022-10-12T04:01:18;20.20;;;12.37;;
65753;SDS011;52488;47.502;18.940;2022-10-12T04:02:21;21.58;;;12.20;;
65753;SDS011;52488;47.502;18.940;2022-10-12T04:03:24;21.90;;;12.20;;
65753;SDS011;52488;47.502;18.940;2022-10-12T04:04:27;19.17;;;11.40;;
65753;SDS011;52488;47.502;18.940;2022-10-12T04:05:30;19.77;;;11.63;;
65753;SDS011;52488;47.502;18.940;2022-10-12T04:06:34;18.92;;;11.40;;
65753;SDS011;52488;47.502;18.940;2022-10-12T04:07:37;19.80;;;11.73;;
65753;SDS011;52488;47.502;18.940;2022-10-12T04:08:40;19.42;;;12.15;;
65753;SDS011;52488;47.502;18.940;2022-10-12T04:09:49;20.37;;;10.82;;
65753;SDS011;52488;47.502;18.940;2022-10-12T04:10:52;21.95;;;10.98;;
65753;SDS011;52488;47.502;18.940;2022-10-12T04:11:55;19.33;;;11.15;;
65753;SDS011;52488;47.502;18.940;2022-10-12T04:12:58;19.25;;;10.48;;
65753;SDS011;52488;47.502;18.940;2022-10-12T04:14:01;18.65;;;11.27;;
65753;SDS011;52488;47.502;18.940;2022-10-12T04:15:04;24.27;;;11.85;;
65753;SDS011;52488;47.502;18.940;2022-10-12T04:16:08;16.73;;;10.70;;
65753;SDS011;52488;47.502;18.940;2022-10-12T04:17:13;16.17;;;10.38;;
65753;SDS011;52488;47.502;18.940;2022-10-12T04:18:17;22.33;;;11.50;;
65753;SDS011;52488;47.502;18.940;2022-10-12T04:19:20;16.75;;;10.30;;
65753;SDS011;52488;47.502;18.940;2022-10-12T04:20:23;17.98;;;10.63;;
65753;SDS011;52488;47.502;18.940;2022-10-12T04:21:27;19.77;;;10.40;;
65753;SDS011;52488;47.502;18.940;2022-10-12T04:22:32;20.62;;;11.32;;
65753;SDS011;52488;47.502;18.940;2022-10-12T04:23:35;18.73;;;10.65;;
65753;SDS011;52488;47.502;18.940;2022-10-12T04:24:38;18.87;;;10.68;;
65753;SDS011;52488;47.502;18.940;2022-10-12T04:25:41;18.67;;;11.15;;
65753;SDS011;52488;47.502;18.940;2022-10-12T04:26:49;20.40;;;10.43;;
65753;SDS011;52488;47.502;18.940;2022-10-12T04:27:52;18.45;;;10.75;;
65753;SDS011;52488;47.502;18.940;2022-10-12T04:28:55;21.17;;;10.70;;
65753;SDS011;52488;47.502;18.940;2022-10-12T04:29:58;17.42;;;10.93;;
65753;SDS011;52488;47.502;18.940;2022-10-12T04:31:01;16.98;;;10.32;;
65753;SDS011;52488;47.502;18.940;2022-10-12T04:32:04;17.98;;;10.07;;
65753;SDS011;52488;47.502;18.940;2022-10-12T04:33:13;19.90;;;11.32;;
65753;SDS011;52488;47.502;18.940;2022-10-12T04:34:20;16.02;;;9.90;;
65753;SDS011;52488;47.502;18.940;2022-10-12T04:35:23;15.70;;;9.52;;
65753;SDS011;52488;47.502;18.940;2022-10-12T04:36:26;20.80;;;10.55;;
65753;SDS011;52488;47.502;18.940;2022-10-12T04:37:29;17.77;;;9.70;;
65753;SDS011;52488;47.502;18.940;2022-10-12T04:38:32;19.00;;;10.82;;
65753;SDS011;52488;47.502;18.940;2022-10-12T04:39:35;17.65;;;10.45;;
65753;SDS011;52488;47.502;18.940;2022-10-12T04:40:38;19.45;;;10.20;;
65753;SDS011;52488;47.502;18.940;2022-10-12T04:41:40;15.35;;;9.82;;
65753;SDS011;52488;47.502;18.940;2022-10-12T04:42:43;15.40;;;9.80;;
65753;SDS011;52488;47.502;18.940;2022-10-12T04:43:46;15.35;;;9.57;;
65753;SDS011;52488;47.502;18.940;2022-10-12T04:44:53;17.65;;;10.70;;
65753;SDS011;52488;47.502;18.940;2022-10-12T04:45:57;17.10;;;10.40;;
65753;SDS011;52488;47.502;18.940;2022-10-12T04:47:01;23.70;;;10.27;;
65753;SDS011;52488;47.502;18.940;2022-10-12T04:48:04;19.80;;;10.95;;
65753;SDS011;52488;47.502;18.940;2022-10-12T04:49:07;14.95;;;9.80;;
65753;SDS011;52488;47.502;18.940;2022-10-12T04:50:10;18.83;;;10.05;;
65753;SDS011;52488;47.502;18.940;2022-10-12T04:51:13;18.37;;;11.25;;
65753;SDS011;52488;47.502;18.940;2022-10-12T04:52:16;14.63;;;10.10;;
65753;SDS011;52488;47.502;18.940;2022-10-12T04:53:19;21.23;;;10.43;;
65753;SDS011;52488;47.502;18.940;2022-10-12T04:54:22;22.62;;;9.60;;
65753;SDS011;52488;47.502;18.940;2022-10-12T04:55:26;19.75;;;10.48;;
65753;SDS011;52488;47.502;18.940;2022-10-12T04:56:29;18.02;;;10.15;;
65753;SDS011;52488;47.502;18.940;2022-10-12T04:57:32;18.65;;;10.85;;
65753;SDS011;52488;47.502;18.940;2022-10-12T04:58:35;16.42;;;9.85;;
65753;SDS011;52488;47.502;18.940;2022-10-12T04:59:37;16.80;;;10.68;;
65753;SDS011;52488;47.502;18.940;2022-10-12T05:00:40;24.48;;;10.35;;
65753;SDS011;52488;47.502;18.940;2022-10-12T05:01:43;14.85;;;9.63;;
65753;SDS011;52488;47.502;18.940;2022-10-12T05:02:46;18.85;;;9.98;;
65753;SDS011;52488;47.502;18.940;2022-10-12T05:03:50;15.45;;;9.77;;
65753;SDS011;52488;47.502;18.940;2022-10-12T05:04:56;17.05;;;10.18;;
65753;SDS011;52488;47.502;18.940;2022-10-12T05:05:59;13.25;;;9.05;;
65753;SDS011;52488;47.502;18.940;2022-10-12T05:07:02;14.73;;;9.65;;
65753;SDS011;52488;47.502;18.940;2022-10-12T05:08:05;17.67;;;10.07;;
65753;SDS011;52488;47.502;18.940;2022-10-12T05:09:08;18.25;;;10.75;;
65753;SDS011;52488;47.502;18.940;2022-10-12T05:10:17;20.40;;;10.93;;
65753;SDS011;52488;47.502;18.940;2022-10-12T05:11:20;16.02;;;10.05;;
65753;SDS011;52488;47.502;18.940;2022-10-12T05:12:23;17.25;;;10.15;;
65753;SDS011;52488;47.502;18.940;2022-10-12T05:13:26;16.30;;;9.50;;
65753;SDS011;52488;47.502;18.940;2022-10-12T05:14:30;16.58;;;9.45;;
65753;SDS011;52488;47.502;18.940;2022-10-12T05:15:37;19.48;;;10.75;;
65753;SDS011;52488;47.502;18.940;2022-10-12T05:16:40;15.73;;;9.15;;
65753;SDS011;52488;47.502;18.940;2022-10-12T05:17:42;17.17;;;9.65;;
65753;SDS011;52488;47.502;18.940;2022-10-12T05:18:45;18.70;;;9.82;;
65753;SDS011;52488;47.502;18.940;2022-10-12T05:19:48;16.45;;;9.63;;
65753;SDS011;52488;47.502;18.940;2022-10-12T05:20:51;14.98;;;9.38;;
65753;SDS011;52488;47.502;18.940;2022-10-12T05:21:58;16.58;;;11.20;;
65753;SDS011;52488;47.502;18.940;2022-10-12T05:23:01;16.75;;;9.93;;
65753;SDS011;52488;47.502;18.940;2022-10-12T05:24:04;16.42;;;9.75;;
65753;SDS011;52488;47.502;18.940;2022-10-12T05:25:07;17.30;;;10.45;;
65753;SDS011;52488;47.502;18.940;2022-10-12T05:26:10;16.12;;;9.32;;
65753;SDS011;52488;47.502;18.940;2022-10-12T05:27:18;18.85;;;9.57;;
65753;SDS011;52488;47.502;18.940;2022-10-12T05:28:23;22.40;;;10.60;;
65753;SDS011;52488;47.502;18.940;2022-10-12T05:29:26;14.13;;;10.10;;
65753;SDS011;52488;47.502;18.940;2022-10-12T05:30:29;16.08;;;9.93;;
65753;SDS011;52488;47.502;18.940;2022-10-12T05:31:32;15.95;;;9.85;;
65753;SDS011;52488;47.502;18.940;2022-10-12T05:32:36;15.23;;;9.50;;
65753;SDS011;52488;47.502;18.940;2022-10-12T05:33:39;15.38;;;10.07;;
65753;SDS011;52488;47.502;18.940;2022-10-12T05:34:42;18.27;;;10.30;;
65753;SDS011;52488;47.502;18.940;2022-10-12T05:35:48;16.62;;;10.93;;
65753;SDS011;52488;47.502;18.940;2022-10-12T05:36:57;15.18;;;10.18;;
65753;SDS011;52488;47.502;18.940;2022-10-12T05:38:00;19.00;;;10.05;;
65753;SDS011;52488;47.502;18.940;2022-10-12T05:39:03;17.85;;;9.80;;
65753;SDS011;52488;47.502;18.940;2022-10-12T05:40:09;14.10;;;9.18;;
65753;SDS011;52488;47.502;18.940;2022-10-12T05:41:13;16.70;;;10.60;;
65753;SDS011;52488;47.502;18.940;2022-10-12T05:42:21;16.92;;;10.35;;
65753;SDS011;52488;47.502;18.940;2022-10-12T05:43:24;15.00;;;9.48;;
65753;SDS011;52488;47.502;18.940;2022-10-12T05:44:27;19.12;;;10.23;;
65753;SDS011;52488;47.502;18.940;2022-10-12T05:45:30;14.73;;;9.25;;
65753;SDS011;52488;47.502;18.940;2022-10-12T05:46:33;17.80;;;10.27;;
65753;SDS011;52488;47.502;18.940;2022-10-12T05:47:36;18.35;;;10.25;;
65753;SDS011;52488;47.502;18.940;2022-10-12T05:48:39;18.30;;;9.90;;
65753;SDS011;52488;47.502;18.940;2022-10-12T05:49:42;15.18;;;8.93;;
65753;SDS011;52488;47.502;18.940;2022-10-12T05:50:45;16.12;;;9.30;;
65753;SDS011;52488;47.502;18.940;2022-10-12T05:51:48;12.57;;;9.05;;
65753;SDS011;52488;47.502;18.940;2022-10-12T05:52:54;19.05;;;10.98;;
65753;SDS011;52488;47.502;18.940;2022-10-12T05:53:57;13.75;;;9.27;;
65753;SDS011;52488;47.502;18.940;2022-10-12T05:54:59;18.50;;;8.55;;
65753;SDS011;52488;47.502;18.940;2022-10-12T05:56:02;16.10;;;9.32;;
65753;SDS011;52488;47.502;18.940;2022-10-12T05:57:05;19.17;;;9.15;;
65753;SDS011;52488;47.502;18.940;2022-10-12T05:58:08;20.05;;;9.63;;
65753;SDS011;52488;47.502;18.940;2022-10-12T05:59:11;17.23;;;10.57;;
65753;SDS011;52488;47.502;18.940;2022-10-12T06:00:14;18.65;;;9.52;;
65753;SDS011;52488;47.502;18.940;2022-10-12T06:01:19;14.18;;;8.98;;
65753;SDS011;52488;47.502;18.940;2022-10-12T06:02:22;14.18;;;9.30;;
65753;SDS011;52488;47.502;18.940;2022-10-12T06:03:27;19.23;;;8.70;;
65753;SDS011;52488;47.502;18.940;2022-10-12T06:04:36;16.35;;;8.68;;
65753;SDS011;52488;47.502;18.940;2022-10-12T06:05:39;16.90;;;9.02;;
65753;SDS011;52488;47.502;18.940;2022-10-12T06:06:43;19.05;;;9.35;;
65753;SDS011;52488;47.502;18.940;2022-10-12T06:07:46;14.85;;;8.80;;
65753;SDS011;52488;47.502;18.940;2022-10-12T06:08:48;19.42;;;9.43;;
65753;SDS011;52488;47.502;18.940;2022-10-12T06:09:51;22.67;;;9.98;;
65753;SDS011;52488;47.502;18.940;2022-10-12T06:10:54;13.73;;;9.30;;
65753;SDS011;52488;47.502;18.940;2022-10-12T06:12:00;18.35;;;9.15;;
65753;SDS011;52488;47.502;18.940;2022-10-12T06:13:04;19.62;;;8.95;;
65753;SDS011;52488;47.502;18.940;2022-10-12T06:14:07;14.80;;;9.05;;
65753;SDS011;52488;47.502;18.940;2022-10-12T06:15:10;20.92;;;9.80;;
65753;SDS011;52488;47.502;18.940;2022-10-12T06:16:12;15.05;;;9.20;;
65753;SDS011;52488;47.502;18.940;2022-10-12T06:17:15;18.08;;;8.68;;
65753;SDS011;52488;47.502;18.940;2022-10-12T06:18:18;14.77;;;9.50;;
65753;SDS011;52488;47.502;18.940;2022-10-12T06:19:21;17.65;;;10.27;;
65753;SDS011;52488;47.502;18.940;2022-10-12T06:20:24;16.77;;;9.50;;
65753;SDS011;52488;47.502;18.940;2022-10-12T06:21:28;13.85;;;8.90;;
65753;SDS011;52488;47.502;18.940;2022-10-12T06:22:35;17.70;;;10.13;;
65753;SDS011;52488;47.502;18.940;2022-10-12T06:23:39;13.73;;;9.25;;
65753;SDS011;52488;47.502;18.940;2022-10-12T06:24:42;13.27;;;8.80;;
65753;SDS011;52488;47.502;18.940;2022-10-12T06:25:45;14.70;;;9.10;;
65753;SDS011;52488;47.502;18.940;2022-10-12T06:26:49;16.05;;;8.93;;
65753;SDS011;52488;47.502;18.940;2022-10-12T06:27:52;18.25;;;9.65;;
65753;SDS011;52488;47.502;18.940;2022-10-12T06:28:55;15.18;;;9.55;;
65753;SDS011;52488;47.502;18.940;2022-10-12T06:29:58;13.82;;;9.02;;
65753;SDS011;52488;47.502;18.940;2022-10-12T06:31:01;16.98;;;10.35;;
65753;SDS011;52488;47.502;18.940;2022-10-12T06:32:05;17.90;;;9.57;;
65753;SDS011;52488;47.502;18.940;2022-10-12T06:33:08;13.82;;;8.85;;
65753;SDS011;52488;47.502;18.940;2022-10-12T06:34:11;21.70;;;10.35;;
65753;SDS011;52488;47.502;18.940;2022-10-12T06:35:13;17.90;;;9.05;;
65753;SDS011;52488;47.502;18.940;2022-10-12T06:36:16;16.17;;;8.93;;
65753;SDS011;52488;47.502;18.940;2022-10-12T06:37:19;16.27;;;9.30;;
65753;SDS011;52488;47.502;18.940;2022-10-12T06:38:42;14.30;;;8.90;;